sensor_id;sensor_type;location;lat;lon;timestamp;P1;durP1;ratioP1;P2;durP2;ratioP2
10260;SDS011;5175;42.606;23.388;2023-07-29T00:00:39;3.10;;;2.80;;
10260;SDS011;5175;42.606;23.388;2023-07-29T00:03:06;3.03;;;2.53;;
10260;SDS011;5175;42.606;23.388;2023-07-29T00:05:33;3.08;;;2.88;;
10260;SDS011;5175;42.606;23.388;2023-07-29T00:08:00;3.00;;;2.70;;
10260;SDS011;5175;42.606;23.388;2023-07-29T00:10:26;3.15;;;2.80;;
10260;SDS011;5175;42.606;23.388;2023-07-29T00:12:53;3.60;;;2.83;;
10260;SDS011;5175;42.606;23.388;2023-07-29T00:15:21;3.30;;;2.63;;
10260;SDS011;5175;42.606;23.388;2023-07-29T00:17:48;3.17;;;2.88;;
10260;SDS011;5175;42.606;23.388;2023-07-29T00:20:15;3.38;;;2.90;;
10260;SDS011;5175;42.606;23.388;2023-07-29T00:22:42;3.08;;;2.78;;
10260;SDS011;5175;42.606;23.388;2023-07-29T00:25:08;3.92;;;2.60;;
10260;SDS011;5175;42.606;23.388;2023-07-29T00:27:35;4.40;;;2.70;;
10260;SDS011;5175;42.606;23.388;2023-07-29T00:30:02;2.78;;;2.58;;
10260;SDS011;5175;42.606;23.388;2023-07-29T00:32:31;3.20;;;2.90;;
10260;SDS011;5175;42.606;23.388;2023-07-29T00:34:58;2.92;;;2.70;;
10260;SDS011;5175;42.606;23.388;2023-07-29T00:37:26;3.00;;;2.70;;
10260;SDS011;5175;42.606;23.388;2023-07-29T00:39:52;3.50;;;2.80;;
10260;SDS011;5175;42.606;23.388;2023-07-29T00:42:19;2.55;;;2.35;;
10260;SDS011;5175;42.606;23.388;2023-07-29T00:44:46;3.13;;;2.70;;
10260;SDS011;5175;42.606;23.388;2023-07-29T00:47:13;5.70;;;3.03;;
10260;SDS011;5175;42.606;23.388;2023-07-29T00:49:43;3.22;;;2.92;;
10260;SDS011;5175;42.606;23.388;2023-07-29T00:52:10;3.25;;;2.95;;
10260;SDS011;5175;42.606;23.388;2023-07-29T00:54:37;3.03;;;2.70;;
10260;SDS011;5175;42.606;23.388;2023-07-29T00:57:04;3.20;;;2.90;;
10260;SDS011;5175;42.606;23.388;2023-07-29T00:59:32;3.30;;;3.10;;
10260;SDS011;5175;42.606;23.388;2023-07-29T01:02:01;3.80;;;2.80;;
10260;SDS011;5175;42.606;23.388;2023-07-29T01:04:28;4.47;;;3.05;;
10260;SDS011;5175;42.606;23.388;2023-07-29T01:06:58;3.53;;;2.97;;
10260;SDS011;5175;42.606;23.388;2023-07-29T01:09:33;3.07;;;2.87;;
10260;SDS011;5175;42.606;23.388;2023-07-29T01:12:08;3.57;;;3.10;;
10260;SDS011;5175;42.606;23.388;2023-07-29T01:14:45;3.03;;;2.83;;
10260;SDS011;5175;42.606;23.388;2023-07-29T01:17:19;3.57;;;3.27;;
10260;SDS011;5175;42.606;23.388;2023-07-29T01:19:55;3.50;;;3.20;;
10260;SDS011;5175;42.606;23.388;2023-07-29T01:22:27;3.40;;;3.10;;
10260;SDS011;5175;42.606;23.388;2023-07-29T01:24:57;3.73;;;3.20;;
10260;SDS011;5175;42.606;23.388;2023-07-29T01:27:24;3.93;;;3.30;;
10260;SDS011;5175;42.606;23.388;2023-07-29T01:29:51;3.90;;;3.27;;
10260;SDS011;5175;42.606;23.388;2023-07-29T01:32:19;4.57;;;3.27;;
10260;SDS011;5175;42.606;23.388;2023-07-29T01:34:53;3.70;;;3.40;;
10260;SDS011;5175;42.606;23.388;2023-07-29T01:37:26;3.43;;;3.13;;
10260;SDS011;5175;42.606;23.388;2023-07-29T01:39:57;4.20;;;3.20;;
10260;SDS011;5175;42.606;23.388;2023-07-29T01:42:26;3.53;;;3.23;;
10260;SDS011;5175;42.606;23.388;2023-07-29T01:44:53;3.93;;;2.90;;
10260;SDS011;5175;42.606;23.388;2023-07-29T01:47:20;3.10;;;2.90;;
10260;SDS011;5175;42.606;23.388;2023-07-29T01:49:48;3.47;;;3.17;;
10260;SDS011;5175;42.606;23.388;2023-07-29T01:52:14;3.43;;;3.13;;
10260;SDS011;5175;42.606;23.388;2023-07-29T01:54:41;3.03;;;2.83;;
10260;SDS011;5175;42.606;23.388;2023-07-29T01:57:09;3.60;;;3.30;;
10260;SDS011;5175;42.606;23.388;2023-07-29T01:59:36;3.53;;;3.23;;
10260;SDS011;5175;42.606;23.388;2023-07-29T02:02:03;3.50;;;3.20;;
10260;SDS011;5175;42.606;23.388;2023-07-29T02:04:29;3.40;;;3.10;;
10260;SDS011;5175;42.606;23.388;2023-07-29T02:06:56;3.40;;;3.10;;
10260;SDS011;5175;42.606;23.388;2023-07-29T02:09:23;3.50;;;3.20;;
10260;SDS011;5175;42.606;23.388;2023-07-29T02:11:50;3.50;;;3.20;;
10260;SDS011;5175;42.606;23.388;2023-07-29T02:14:19;3.60;;;3.30;;
10260;SDS011;5175;42.606;23.388;2023-07-29T02:16:45;3.57;;;3.27;;
10260;SDS011;5175;42.606;23.388;2023-07-29T02:19:12;4.70;;;3.10;;
10260;SDS011;5175;42.606;23.388;2023-07-29T02:21:39;3.80;;;3.40;;
10260;SDS011;5175;42.606;23.388;2023-07-29T02:24:05;3.63;;;3.30;;
10260;SDS011;5175;42.606;23.388;2023-07-29T02:26:32;3.57;;;3.00;;
10260;SDS011;5175;42.606;23.388;2023-07-29T02:28:59;10.93;;;3.77;;
10260;SDS011;5175;42.606;23.388;2023-07-29T02:31:27;6.73;;;3.30;;
10260;SDS011;5175;42.606;23.388;2023-07-29T02:33:54;5.07;;;3.13;;
10260;SDS011;5175;42.606;23.388;2023-07-29T02:36:20;4.13;;;3.73;;
10260;SDS011;5175;42.606;23.388;2023-07-29T02:38:47;4.10;;;3.40;;
10260;SDS011;5175;42.606;23.388;2023-07-29T02:41:14;4.47;;;3.53;;
10260;SDS011;5175;42.606;23.388;2023-07-29T02:43:41;3.70;;;3.40;;
10260;SDS011;5175;42.606;23.388;2023-07-29T02:46:08;3.43;;;3.13;;
10260;SDS011;5175;42.606;23.388;2023-07-29T02:48:36;3.60;;;3.30;;
10260;SDS011;5175;42.606;23.388;2023-07-29T02:51:03;3.50;;;3.20;;
10260;SDS011;5175;42.606;23.388;2023-07-29T02:53:30;4.60;;;3.50;;
10260;SDS011;5175;42.606;23.388;2023-07-29T02:55:56;3.80;;;3.50;;
10260;SDS011;5175;42.606;23.388;2023-07-29T02:58:23;3.67;;;3.37;;
10260;SDS011;5175;42.606;23.388;2023-07-29T03:00:51;4.33;;;3.50;;
10260;SDS011;5175;42.606;23.388;2023-07-29T03:03:18;3.80;;;3.50;;
10260;SDS011;5175;42.606;23.388;2023-07-29T03:05:46;3.70;;;3.30;;
10260;SDS011;5175;42.606;23.388;2023-07-29T03:08:13;3.53;;;3.23;;
10260;SDS011;5175;42.606;23.388;2023-07-29T03:10:40;3.97;;;3.57;;
10260;SDS011;5175;42.606;23.388;2023-07-29T03:13:07;4.83;;;3.43;;
10260;SDS011;5175;42.606;23.388;2023-07-29T03:15:33;4.20;;;3.50;;
10260;SDS011;5175;42.606;23.388;2023-07-29T03:18:00;4.20;;;3.80;;
10260;SDS011;5175;42.606;23.388;2023-07-29T03:20:27;3.73;;;3.43;;
10260;SDS011;5175;42.606;23.388;2023-07-29T03:22:55;3.70;;;3.40;;
10260;SDS011;5175;42.606;23.388;2023-07-29T03:25:22;3.77;;;3.47;;
10260;SDS011;5175;42.606;23.388;2023-07-29T03:27:49;3.80;;;3.50;;
10260;SDS011;5175;42.606;23.388;2023-07-29T03:30:18;4.30;;;3.50;;
10260;SDS011;5175;42.606;23.388;2023-07-29T03:32:45;3.80;;;3.47;;
10260;SDS011;5175;42.606;23.388;2023-07-29T03:35:12;3.87;;;3.57;;
10260;SDS011;5175;42.606;23.388;2023-07-29T03:37:39;4.07;;;3.37;;
10260;SDS011;5175;42.606;23.388;2023-07-29T03:40:08;3.97;;;3.63;;
10260;SDS011;5175;42.606;23.388;2023-07-29T03:42:36;4.37;;;3.60;;
10260;SDS011;5175;42.606;23.388;2023-07-29T03:45:03;3.53;;;3.23;;
10260;SDS011;5175;42.606;23.388;2023-07-29T03:47:30;4.30;;;3.27;;
10260;SDS011;5175;42.606;23.388;2023-07-29T03:49:57;3.70;;;3.40;;
10260;SDS011;5175;42.606;23.388;2023-07-29T03:52:23;3.60;;;3.30;;
10260;SDS011;5175;42.606;23.388;2023-07-29T03:54:50;4.50;;;3.80;;
10260;SDS011;5175;42.606;23.388;2023-07-29T03:57:18;4.87;;;3.73;;
10260;SDS011;5175;42.606;23.388;2023-07-29T03:59:45;4.17;;;3.77;;
10260;SDS011;5175;42.606;23.388;2023-07-29T04:02:12;4.37;;;3.80;;
10260;SDS011;5175;42.606;23.388;2023-07-29T04:04:39;4.10;;;3.67;;
10260;SDS011;5175;42.606;23.388;2023-07-29T04:07:07;4.03;;;3.73;;
10260;SDS011;5175;42.606;23.388;2023-07-29T04:09:33;4.30;;;3.90;;
10260;SDS011;5175;42.606;23.388;2023-07-29T04:12:00;4.37;;;3.97;;
10260;SDS011;5175;42.606;23.388;2023-07-29T04:14:29;4.47;;;4.03;;
10260;SDS011;5175;42.606;23.388;2023-07-29T04:16:56;4.87;;;3.93;;
10260;SDS011;5175;42.606;23.388;2023-07-29T04:19:23;5.03;;;3.97;;
10260;SDS011;5175;42.606;23.388;2023-07-29T04:21:49;4.67;;;3.93;;
10260;SDS011;5175;42.606;23.388;2023-07-29T04:24:16;4.40;;;4.00;;
10260;SDS011;5175;42.606;23.388;2023-07-29T04:26:45;4.30;;;3.87;;
10260;SDS011;5175;42.606;23.388;2023-07-29T04:29:12;4.13;;;3.73;;
10260;SDS011;5175;42.606;23.388;2023-07-29T04:31:40;4.37;;;3.90;;
10260;SDS011;5175;42.606;23.388;2023-07-29T04:34:07;3.90;;;3.60;;
10260;SDS011;5175;42.606;23.388;2023-07-29T04:36:35;4.30;;;3.90;;
10260;SDS011;5175;42.606;23.388;2023-07-29T04:39:02;4.13;;;3.83;;
10260;SDS011;5175;42.606;23.388;2023-07-29T04:41:28;4.77;;;4.23;;
10260;SDS011;5175;42.606;23.388;2023-07-29T04:43:55;4.32;;;3.92;;
10260;SDS011;5175;42.606;23.388;2023-07-29T04:46:22;4.53;;;4.10;;
10260;SDS011;5175;42.606;23.388;2023-07-29T04:48:50;5.00;;;4.15;;
10260;SDS011;5175;42.606;23.388;2023-07-29T04:51:17;4.30;;;3.88;;
10260;SDS011;5175;42.606;23.388;2023-07-29T04:53:44;4.95;;;3.92;;
10260;SDS011;5175;42.606;23.388;2023-07-29T04:56:10;4.70;;;4.20;;
10260;SDS011;5175;42.606;23.388;2023-07-29T04:58:37;4.72;;;4.10;;
10260;SDS011;5175;42.606;23.388;2023-07-29T05:01:04;4.25;;;3.85;;
10260;SDS011;5175;42.606;23.388;2023-07-29T05:03:31;3.90;;;3.55;;
10260;SDS011;5175;42.606;23.388;2023-07-29T05:05:59;4.63;;;4.22;;
10260;SDS011;5175;42.606;23.388;2023-07-29T05:08:26;4.88;;;4.13;;
10260;SDS011;5175;42.606;23.388;2023-07-29T05:10:53;3.90;;;3.60;;
10260;SDS011;5175;42.606;23.388;2023-07-29T05:13:21;4.13;;;3.70;;
10260;SDS011;5175;42.606;23.388;2023-07-29T05:15:48;4.93;;;4.30;;
10260;SDS011;5175;42.606;23.388;2023-07-29T05:18:15;5.28;;;3.75;;
10260;SDS011;5175;42.606;23.388;2023-07-29T05:20:42;4.28;;;3.80;;
10260;SDS011;5175;42.606;23.388;2023-07-29T05:23:10;5.30;;;3.95;;
10260;SDS011;5175;42.606;23.388;2023-07-29T05:25:37;4.82;;;4.32;;
10260;SDS011;5175;42.606;23.388;2023-07-29T05:28:04;5.68;;;4.38;;
10260;SDS011;5175;42.606;23.388;2023-07-29T05:30:31;4.78;;;4.00;;
10260;SDS011;5175;42.606;23.388;2023-07-29T05:33:02;4.15;;;3.85;;
10260;SDS011;5175;42.606;23.388;2023-07-29T05:35:29;4.30;;;3.90;;
10260;SDS011;5175;42.606;23.388;2023-07-29T05:37:56;4.10;;;3.80;;
10260;SDS011;5175;42.606;23.388;2023-07-29T05:40:24;4.55;;;3.80;;
10260;SDS011;5175;42.606;23.388;2023-07-29T05:42:51;4.10;;;3.70;;
10260;SDS011;5175;42.606;23.388;2023-07-29T05:45:17;5.25;;;4.00;;
10260;SDS011;5175;42.606;23.388;2023-07-29T05:47:44;4.15;;;3.75;;
10260;SDS011;5175;42.606;23.388;2023-07-29T05:50:11;4.10;;;3.70;;
10260;SDS011;5175;42.606;23.388;2023-07-29T05:52:38;4.38;;;3.97;;
10260;SDS011;5175;42.606;23.388;2023-07-29T05:55:05;3.92;;;3.60;;
10260;SDS011;5175;42.606;23.388;2023-07-29T05:57:33;4.50;;;4.10;;
10260;SDS011;5175;42.606;23.388;2023-07-29T06:00:00;4.10;;;3.70;;
10260;SDS011;5175;42.606;23.388;2023-07-29T06:02:27;4.25;;;3.85;;
10260;SDS011;5175;42.606;23.388;2023-07-29T06:04:54;3.97;;;3.67;;
10260;SDS011;5175;42.606;23.388;2023-07-29T06:07:21;4.05;;;3.75;;
10260;SDS011;5175;42.606;23.388;2023-07-29T06:09:48;4.78;;;3.90;;
10260;SDS011;5175;42.606;23.388;2023-07-29T06:12:15;4.95;;;3.88;;
10260;SDS011;5175;42.606;23.388;2023-07-29T06:14:43;4.05;;;3.65;;
10260;SDS011;5175;42.606;23.388;2023-07-29T06:17:09;4.20;;;3.80;;
10260;SDS011;5175;42.606;23.388;2023-07-29T06:19:37;4.57;;;3.60;;
10260;SDS011;5175;42.606;23.388;2023-07-29T06:22:04;3.95;;;3.65;;
10260;SDS011;5175;42.606;23.388;2023-07-29T06:24:31;3.67;;;3.38;;
10260;SDS011;5175;42.606;23.388;2023-07-29T06:26:58;4.35;;;3.63;;
10260;SDS011;5175;42.606;23.388;2023-07-29T06:29:25;3.80;;;3.47;;
10260;SDS011;5175;42.606;23.388;2023-07-29T06:31:53;4.00;;;3.70;;
10260;SDS011;5175;42.606;23.388;2023-07-29T06:34:20;3.78;;;3.47;;
10260;SDS011;5175;42.606;23.388;2023-07-29T06:36:47;4.15;;;3.75;;
10260;SDS011;5175;42.606;23.388;2023-07-29T06:39:13;3.90;;;3.60;;
10260;SDS011;5175;42.606;23.388;2023-07-29T06:41:40;5.30;;;3.58;;
10260;SDS011;5175;42.606;23.388;2023-07-29T06:44:07;3.58;;;3.30;;
10260;SDS011;5175;42.606;23.388;2023-07-29T06:46:34;3.83;;;3.53;;
10260;SDS011;5175;42.606;23.388;2023-07-29T06:49:02;3.40;;;3.20;;
10260;SDS011;5175;42.606;23.388;2023-07-29T06:51:28;3.95;;;3.35;;
10260;SDS011;5175;42.606;23.388;2023-07-29T06:53:57;3.60;;;3.30;;
10260;SDS011;5175;42.606;23.388;2023-07-29T06:56:24;3.90;;;3.00;;
10260;SDS011;5175;42.606;23.388;2023-07-29T06:58:51;3.05;;;2.80;;
10260;SDS011;5175;42.606;23.388;2023-07-29T07:01:18;4.40;;;2.97;;
10260;SDS011;5175;42.606;23.388;2023-07-29T07:03:44;3.20;;;2.85;;
10260;SDS011;5175;42.606;23.388;2023-07-29T07:06:13;3.20;;;2.97;;
10260;SDS011;5175;42.606;23.388;2023-07-29T07:08:39;3.20;;;2.90;;
10260;SDS011;5175;42.606;23.388;2023-07-29T07:11:06;3.72;;;3.00;;
10260;SDS011;5175;42.606;23.388;2023-07-29T07:13:33;5.18;;;3.65;;
10260;SDS011;5175;42.606;23.388;2023-07-29T07:16:00;4.40;;;3.55;;
10260;SDS011;5175;42.606;23.388;2023-07-29T07:18:27;4.88;;;3.42;;
10260;SDS011;5175;42.606;23.388;2023-07-29T07:20:54;3.75;;;3.20;;
10260;SDS011;5175;42.606;23.388;2023-07-29T07:23:22;5.53;;;3.17;;
10260;SDS011;5175;42.606;23.388;2023-07-29T07:25:48;4.78;;;3.30;;
10260;SDS011;5175;42.606;23.388;2023-07-29T07:28:15;4.75;;;3.20;;
10260;SDS011;5175;42.606;23.388;2023-07-29T07:30:42;3.40;;;3.10;;
10260;SDS011;5175;42.606;23.388;2023-07-29T07:33:09;3.97;;;3.67;;
10260;SDS011;5175;42.606;23.388;2023-07-29T07:35:36;7.15;;;3.50;;
10260;SDS011;5175;42.606;23.388;2023-07-29T07:38:02;6.65;;;3.58;;
10260;SDS011;5175;42.606;23.388;2023-07-29T07:40:31;3.50;;;3.20;;
10260;SDS011;5175;42.606;23.388;2023-07-29T07:42:58;4.18;;;3.65;;
10260;SDS011;5175;42.606;23.388;2023-07-29T07:45:24;5.03;;;3.58;;
10260;SDS011;5175;42.606;23.388;2023-07-29T07:47:51;3.72;;;3.15;;
10260;SDS011;5175;42.606;23.388;2023-07-29T07:50:19;3.83;;;3.40;;
10260;SDS011;5175;42.606;23.388;2023-07-29T07:52:45;4.57;;;3.20;;
10260;SDS011;5175;42.606;23.388;2023-07-29T07:55:12;4.05;;;3.50;;
10260;SDS011;5175;42.606;23.388;2023-07-29T07:57:40;3.92;;;3.17;;
10260;SDS011;5175;42.606;23.388;2023-07-29T08:00:07;3.75;;;3.40;;
10260;SDS011;5175;42.606;23.388;2023-07-29T08:02:35;5.53;;;3.60;;
10260;SDS011;5175;42.606;23.388;2023-07-29T08:05:02;3.83;;;3.20;;
10260;SDS011;5175;42.606;23.388;2023-07-29T08:07:29;4.07;;;3.67;;
10260;SDS011;5175;42.606;23.388;2023-07-29T08:09:56;4.85;;;3.72;;
10260;SDS011;5175;42.606;23.388;2023-07-29T08:12:23;4.85;;;3.45;;
10260;SDS011;5175;42.606;23.388;2023-07-29T08:14:51;5.10;;;3.90;;
10260;SDS011;5175;42.606;23.388;2023-07-29T08:17:17;5.45;;;3.25;;
10260;SDS011;5175;42.606;23.388;2023-07-29T08:19:44;3.80;;;3.30;;
10260;SDS011;5175;42.606;23.388;2023-07-29T08:22:11;3.85;;;3.53;;
10260;SDS011;5175;42.606;23.388;2023-07-29T08:24:38;3.50;;;3.20;;
10260;SDS011;5175;42.606;23.388;2023-07-29T08:27:05;4.50;;;3.30;;
10260;SDS011;5175;42.606;23.388;2023-07-29T08:29:32;5.82;;;3.42;;
10260;SDS011;5175;42.606;23.388;2023-07-29T08:32:00;4.72;;;3.28;;
10260;SDS011;5175;42.606;23.388;2023-07-29T08:34:27;3.72;;;3.25;;
10260;SDS011;5175;42.606;23.388;2023-07-29T08:36:54;3.67;;;3.20;;
10260;SDS011;5175;42.606;23.388;2023-07-29T08:39:20;4.03;;;2.90;;
10260;SDS011;5175;42.606;23.388;2023-07-29T08:41:49;3.97;;;2.97;;
10260;SDS011;5175;42.606;23.388;2023-07-29T08:44:21;3.85;;;3.00;;
10260;SDS011;5175;42.606;23.388;2023-07-29T08:46:49;5.10;;;3.28;;
10260;SDS011;5175;42.606;23.388;2023-07-29T08:49:18;3.50;;;2.92;;
10260;SDS011;5175;42.606;23.388;2023-07-29T08:51:45;3.28;;;2.97;;
10260;SDS011;5175;42.606;23.388;2023-07-29T08:54:13;4.80;;;2.63;;
10260;SDS011;5175;42.606;23.388;2023-07-29T08:56:40;3.25;;;2.92;;
10260;SDS011;5175;42.606;23.388;2023-07-29T08:59:07;4.55;;;2.75;;
10260;SDS011;5175;42.606;23.388;2023-07-29T09:01:35;3.55;;;2.78;;
10260;SDS011;5175;42.606;23.388;2023-07-29T09:04:02;4.90;;;3.10;;
10260;SDS011;5175;42.606;23.388;2023-07-29T09:06:30;3.40;;;2.75;;
10260;SDS011;5175;42.606;23.388;2023-07-29T09:08:58;3.10;;;2.80;;
10260;SDS011;5175;42.606;23.388;2023-07-29T09:11:25;2.60;;;2.38;;
10260;SDS011;5175;42.606;23.388;2023-07-29T09:13:53;3.47;;;2.47;;
10260;SDS011;5175;42.606;23.388;2023-07-29T09:16:20;2.65;;;2.30;;
10260;SDS011;5175;42.606;23.388;2023-07-29T09:18:48;3.75;;;2.40;;
10260;SDS011;5175;42.606;23.388;2023-07-29T09:21:15;3.15;;;2.22;;
10260;SDS011;5175;42.606;23.388;2023-07-29T09:23:45;3.17;;;2.17;;
10260;SDS011;5175;42.606;23.388;2023-07-29T09:26:12;4.45;;;2.28;;
10260;SDS011;5175;42.606;23.388;2023-07-29T09:28:39;2.15;;;1.42;;
10260;SDS011;5175;42.606;23.388;2023-07-29T09:31:06;2.88;;;1.45;;
10260;SDS011;5175;42.606;23.388;2023-07-29T09:33:44;2.30;;;1.88;;
10260;SDS011;5175;42.606;23.388;2023-07-29T09:36:11;2.20;;;2.00;;
10260;SDS011;5175;42.606;23.388;2023-07-29T09:38:38;2.42;;;2.05;;
10260;SDS011;5175;42.606;23.388;2023-07-29T09:41:06;2.30;;;2.10;;
10260;SDS011;5175;42.606;23.388;2023-07-29T09:43:33;2.50;;;2.30;;
10260;SDS011;5175;42.606;23.388;2023-07-29T09:46:01;3.03;;;2.35;;
10260;SDS011;5175;42.606;23.388;2023-07-29T09:48:32;3.05;;;2.42;;
10260;SDS011;5175;42.606;23.388;2023-07-29T09:50:59;3.72;;;2.42;;
10260;SDS011;5175;42.606;23.388;2023-07-29T09:53:26;2.90;;;2.33;;
10260;SDS011;5175;42.606;23.388;2023-07-29T09:55:52;2.50;;;2.30;;
10260;SDS011;5175;42.606;23.388;2023-07-29T09:58:26;3.45;;;2.20;;
10260;SDS011;5175;42.606;23.388;2023-07-29T10:00:53;2.55;;;2.00;;
10260;SDS011;5175;42.606;23.388;2023-07-29T10:03:21;2.95;;;2.22;;
10260;SDS011;5175;42.606;23.388;2023-07-29T10:05:48;2.45;;;2.03;;
10260;SDS011;5175;42.606;23.388;2023-07-29T10:08:15;4.43;;;2.00;;
10260;SDS011;5175;42.606;23.388;2023-07-29T10:10:43;1.90;;;1.80;;
10260;SDS011;5175;42.606;23.388;2023-07-29T10:13:10;2.05;;;1.65;;
10260;SDS011;5175;42.606;23.388;2023-07-29T10:15:40;2.40;;;1.77;;
10260;SDS011;5175;42.606;23.388;2023-07-29T10:18:07;2.42;;;1.95;;
10260;SDS011;5175;42.606;23.388;2023-07-29T10:20:33;2.00;;;1.80;;
10260;SDS011;5175;42.606;23.388;2023-07-29T10:23:01;2.15;;;1.95;;
10260;SDS011;5175;42.606;23.388;2023-07-29T10:25:36;3.33;;;1.60;;
10260;SDS011;5175;42.606;23.388;2023-07-29T10:28:07;2.50;;;1.70;;
10260;SDS011;5175;42.606;23.388;2023-07-29T10:30:34;2.40;;;1.80;;
10260;SDS011;5175;42.606;23.388;2023-07-29T10:33:03;2.38;;;1.73;;
10260;SDS011;5175;42.606;23.388;2023-07-29T10:35:32;1.92;;;1.42;;
10260;SDS011;5175;42.606;23.388;2023-07-29T10:37:59;2.63;;;1.60;;
10260;SDS011;5175;42.606;23.388;2023-07-29T10:40:43;1.50;;;1.38;;
10260;SDS011;5175;42.606;23.388;2023-07-29T10:43:11;3.45;;;1.52;;
10260;SDS011;5175;42.606;23.388;2023-07-29T10:45:40;3.08;;;1.48;;
10260;SDS011;5175;42.606;23.388;2023-07-29T10:48:12;4.82;;;2.00;;
10260;SDS011;5175;42.606;23.388;2023-07-29T10:50:39;1.90;;;1.30;;
10260;SDS011;5175;42.606;23.388;2023-07-29T10:53:06;2.25;;;1.50;;
10260;SDS011;5175;42.606;23.388;2023-07-29T10:55:34;1.80;;;1.52;;
10260;SDS011;5175;42.606;23.388;2023-07-29T10:58:09;1.67;;;1.27;;
10260;SDS011;5175;42.606;23.388;2023-07-29T11:00:38;2.72;;;1.50;;
10260;SDS011;5175;42.606;23.388;2023-07-29T11:03:07;2.47;;;1.40;;
10260;SDS011;5175;42.606;23.388;2023-07-29T11:05:46;2.00;;;1.50;;
10260;SDS011;5175;42.606;23.388;2023-07-29T11:08:20;1.63;;;1.25;;
10260;SDS011;5175;42.606;23.388;2023-07-29T11:10:59;1.52;;;1.42;;
10260;SDS011;5175;42.606;23.388;2023-07-29T11:13:28;1.83;;;1.40;;
10260;SDS011;5175;42.606;23.388;2023-07-29T11:15:56;1.88;;;1.30;;
10260;SDS011;5175;42.606;23.388;2023-07-29T11:18:25;3.22;;;1.60;;
10260;SDS011;5175;42.606;23.388;2023-07-29T11:20:55;2.30;;;1.40;;
10260;SDS011;5175;42.606;23.388;2023-07-29T11:23:27;1.42;;;1.33;;
10260;SDS011;5175;42.606;23.388;2023-07-29T11:25:55;1.70;;;1.30;;
10260;SDS011;5175;42.606;23.388;2023-07-29T11:28:21;1.52;;;1.42;;
10260;SDS011;5175;42.606;23.388;2023-07-29T11:30:49;1.30;;;1.20;;
10260;SDS011;5175;42.606;23.388;2023-07-29T11:33:17;1.65;;;1.30;;
10260;SDS011;5175;42.606;23.388;2023-07-29T11:35:44;1.75;;;1.50;;
10260;SDS011;5175;42.606;23.388;2023-07-29T11:38:15;2.30;;;1.38;;
10260;SDS011;5175;42.606;23.388;2023-07-29T11:40:42;1.52;;;1.42;;
10260;SDS011;5175;42.606;23.388;2023-07-29T11:43:19;2.35;;;1.60;;
10260;SDS011;5175;42.606;23.388;2023-07-29T11:45:46;3.25;;;1.40;;
10260;SDS011;5175;42.606;23.388;2023-07-29T11:48:12;1.35;;;1.20;;
10260;SDS011;5175;42.606;23.388;2023-07-29T11:50:39;2.45;;;1.40;;
10260;SDS011;5175;42.606;23.388;2023-07-29T11:53:06;1.90;;;1.40;;
10260;SDS011;5175;42.606;23.388;2023-07-29T11:55:34;1.65;;;1.40;;
10260;SDS011;5175;42.606;23.388;2023-07-29T11:58:01;2.38;;;1.60;;
10260;SDS011;5175;42.606;23.388;2023-07-29T12:00:28;1.63;;;1.52;;
10260;SDS011;5175;42.606;23.388;2023-07-29T12:02:55;1.92;;;1.40;;
10260;SDS011;5175;42.606;23.388;2023-07-29T12:05:23;1.58;;;1.48;;
10260;SDS011;5175;42.606;23.388;2023-07-29T12:07:51;1.42;;;1.30;;
10260;SDS011;5175;42.606;23.388;2023-07-29T12:10:17;2.30;;;1.70;;
10260;SDS011;5175;42.606;23.388;2023-07-29T12:12:48;1.70;;;1.50;;
10260;SDS011;5175;42.606;23.388;2023-07-29T12:15:22;2.20;;;1.77;;
10260;SDS011;5175;42.606;23.388;2023-07-29T12:17:52;1.50;;;1.40;;
10260;SDS011;5175;42.606;23.388;2023-07-29T12:20:20;2.25;;;1.60;;
10260;SDS011;5175;42.606;23.388;2023-07-29T12:22:51;2.38;;;1.73;;
10260;SDS011;5175;42.606;23.388;2023-07-29T12:25:18;2.10;;;1.80;;
10260;SDS011;5175;42.606;23.388;2023-07-29T12:27:45;4.07;;;2.05;;
10260;SDS011;5175;42.606;23.388;2023-07-29T12:30:14;3.05;;;1.90;;
10260;SDS011;5175;42.606;23.388;2023-07-29T12:32:45;2.10;;;1.80;;
10260;SDS011;5175;42.606;23.388;2023-07-29T12:35:12;2.47;;;1.60;;
10260;SDS011;5175;42.606;23.388;2023-07-29T12:37:39;1.63;;;1.52;;
10260;SDS011;5175;42.606;23.388;2023-07-29T12:40:08;3.63;;;1.60;;
10260;SDS011;5175;42.606;23.388;2023-07-29T12:42:47;3.25;;;1.48;;
10260;SDS011;5175;42.606;23.388;2023-07-29T12:45:16;1.38;;;1.27;;
10260;SDS011;5175;42.606;23.388;2023-07-29T12:47:43;2.67;;;1.60;;
10260;SDS011;5175;42.606;23.388;2023-07-29T12:50:10;1.63;;;1.50;;
10260;SDS011;5175;42.606;23.388;2023-07-29T12:52:36;2.25;;;1.50;;
10260;SDS011;5175;42.606;23.388;2023-07-29T12:55:04;2.65;;;1.42;;
10260;SDS011;5175;42.606;23.388;2023-07-29T12:57:33;3.00;;;1.50;;
10260;SDS011;5175;42.606;23.388;2023-07-29T13:00:00;2.20;;;1.30;;
10260;SDS011;5175;42.606;23.388;2023-07-29T13:02:30;2.40;;;1.38;;
10260;SDS011;5175;42.606;23.388;2023-07-29T13:04:57;1.60;;;1.10;;
10260;SDS011;5175;42.606;23.388;2023-07-29T13:07:24;1.35;;;1.20;;
10260;SDS011;5175;42.606;23.388;2023-07-29T13:09:51;1.30;;;1.20;;
10260;SDS011;5175;42.606;23.388;2023-07-29T13:12:17;1.55;;;1.10;;
10260;SDS011;5175;42.606;23.388;2023-07-29T13:14:44;1.33;;;1.23;;
10260;SDS011;5175;42.606;23.388;2023-07-29T13:17:11;1.58;;;1.23;;
10260;SDS011;5175;42.606;23.388;2023-07-29T13:19:39;1.80;;;1.20;;
10260;SDS011;5175;42.606;23.388;2023-07-29T13:22:06;2.88;;;1.50;;
10260;SDS011;5175;42.606;23.388;2023-07-29T13:24:32;1.40;;;1.30;;
10260;SDS011;5175;42.606;23.388;2023-07-29T13:26:59;2.05;;;1.58;;
10260;SDS011;5175;42.606;23.388;2023-07-29T13:29:26;1.50;;;1.40;;
10260;SDS011;5175;42.606;23.388;2023-07-29T13:31:53;2.17;;;1.45;;
10260;SDS011;5175;42.606;23.388;2023-07-29T13:34:19;2.00;;;1.55;;
10260;SDS011;5175;42.606;23.388;2023-07-29T13:36:48;4.18;;;1.50;;
10260;SDS011;5175;42.606;23.388;2023-07-29T13:39:15;1.55;;;1.45;;
10260;SDS011;5175;42.606;23.388;2023-07-29T13:41:41;1.70;;;1.50;;
10260;SDS011;5175;42.606;23.388;2023-07-29T13:44:08;3.45;;;1.60;;
10260;SDS011;5175;42.606;23.388;2023-07-29T13:46:35;1.85;;;1.60;;
10260;SDS011;5175;42.606;23.388;2023-07-29T13:49:02;1.60;;;1.50;;
10260;SDS011;5175;42.606;23.388;2023-07-29T13:51:28;1.65;;;1.55;;
10260;SDS011;5175;42.606;23.388;2023-07-29T13:53:56;2.95;;;1.70;;
10260;SDS011;5175;42.606;23.388;2023-07-29T13:56:23;1.92;;;1.70;;
10260;SDS011;5175;42.606;23.388;2023-07-29T13:58:50;1.85;;;1.70;;
10260;SDS011;5175;42.606;23.388;2023-07-29T14:01:17;2.42;;;1.80;;
10260;SDS011;5175;42.606;23.388;2023-07-29T14:03:44;1.60;;;1.50;;
10260;SDS011;5175;42.606;23.388;2023-07-29T14:06:11;1.60;;;1.50;;
10260;SDS011;5175;42.606;23.388;2023-07-29T14:08:37;1.88;;;1.67;;
10260;SDS011;5175;42.606;23.388;2023-07-29T14:11:07;2.42;;;1.70;;
10260;SDS011;5175;42.606;23.388;2023-07-29T14:13:34;1.67;;;1.58;;
10260;SDS011;5175;42.606;23.388;2023-07-29T14:16:01;1.70;;;1.60;;
10260;SDS011;5175;42.606;23.388;2023-07-29T14:18:28;3.17;;;1.90;;
10260;SDS011;5175;42.606;23.388;2023-07-29T14:20:55;3.05;;;1.67;;
10260;SDS011;5175;42.606;23.388;2023-07-29T14:23:21;1.77;;;1.67;;
10260;SDS011;5175;42.606;23.388;2023-07-29T14:25:48;1.55;;;1.45;;
10260;SDS011;5175;42.606;23.388;2023-07-29T14:28:16;1.77;;;1.67;;
10260;SDS011;5175;42.606;23.388;2023-07-29T14:30:43;2.53;;;1.50;;
10260;SDS011;5175;42.606;23.388;2023-07-29T14:33:10;1.98;;;1.88;;
10260;SDS011;5175;42.606;23.388;2023-07-29T14:35:37;1.83;;;1.73;;
10260;SDS011;5175;42.606;23.388;2023-07-29T14:38:03;2.05;;;1.60;;
10260;SDS011;5175;42.606;23.388;2023-07-29T14:40:30;2.28;;;1.85;;
10260;SDS011;5175;42.606;23.388;2023-07-29T14:42:57;3.40;;;1.90;;
10260;SDS011;5175;42.606;23.388;2023-07-29T14:45:25;3.00;;;1.80;;
10260;SDS011;5175;42.606;23.388;2023-07-29T14:47:53;3.03;;;1.83;;
10260;SDS011;5175;42.606;23.388;2023-07-29T14:50:19;2.83;;;1.80;;